sensor_id;sensor_type;location;lat;lon;timestamp;temperature;humidity
32506;DHT22;18955;51.224;8.482;2024-02-21T00:01:51;9.10;82.00
32506;DHT22;18955;51.224;8.482;2024-02-21T00:04:17;9.00;82.60
32506;DHT22;18955;51.224;8.482;2024-02-21T00:06:43;9.10;82.90
32506;DHT22;18955;51.224;8.482;2024-02-21T00:09:09;9.50;81.00
32506;DHT22;18955;51.224;8.482;2024-02-21T00:11:36;9.40;80.90
32506;DHT22;18955;51.224;8.482;2024-02-21T00:14:02;9.20;81.70
32506;DHT22;18955;51.224;8.482;2024-02-21T00:16:28;9.10;82.40
32506;DHT22;18955;51.224;8.482;2024-02-21T00:18:54;9.00;82.90
32506;DHT22;18955;51.224;8.482;2024-02-21T00:21:20;9.30;82.40
32506;DHT22;18955;51.224;8.482;2024-02-21T00:23:47;9.50;80.80
32506;DHT22;18955;51.224;8.482;2024-02-21T00:26:14;9.40;81.10
32506;DHT22;18955;51.224;8.482;2024-02-21T00:28:40;9.20;82.00
32506;DHT22;18955;51.224;8.482;2024-02-21T00:31:06;9.00;82.60
32506;DHT22;18955;51.224;8.482;2024-02-21T00:33:32;9.00;82.90
32506;DHT22;18955;51.224;8.482;2024-02-21T00:35:59;9.50;81.20
32506;DHT22;18955;51.224;8.482;2024-02-21T00:38:25;9.40;80.90
32506;DHT22;18955;51.224;8.482;2024-02-21T00:40:51;9.20;81.50
32506;DHT22;18955;51.224;8.482;2024-02-21T00:43:17;9.10;82.20
32506;DHT22;18955;51.224;8.482;2024-02-21T00:45:43;9.00;82.70
32506;DHT22;18955;51.224;8.482;2024-02-21T00:48:10;9.20;82.20
32506;DHT22;18955;51.224;8.482;2024-02-21T00:50:36;9.40;80.90
32506;DHT22;18955;51.224;8.482;2024-02-21T00:53:03;9.30;81.10
32506;DHT22;18955;51.224;8.482;2024-02-21T00:55:29;9.10;81.90
32506;DHT22;18955;51.224;8.482;2024-02-21T00:57:56;9.00;82.50
32506;DHT22;18955;51.224;8.482;2024-02-21T01:00:22;9.00;82.80
32506;DHT22;18955;51.224;8.482;2024-02-21T01:02:48;9.40;81.20
32506;DHT22;18955;51.224;8.482;2024-02-21T01:05:14;9.40;81.10
32506;DHT22;18955;51.224;8.482;2024-02-21T01:07:40;9.20;81.60
32506;DHT22;18955;51.224;8.482;2024-02-21T01:10:07;9.10;82.20
32506;DHT22;18955;51.224;8.482;2024-02-21T01:12:34;8.90;82.80
32506;DHT22;18955;51.224;8.482;2024-02-21T01:15:00;9.20;82.10
32506;DHT22;18955;51.224;8.482;2024-02-21T01:17:26;9.30;81.00
32506;DHT22;18955;51.224;8.482;2024-02-21T01:19:53;9.30;81.30
32506;DHT22;18955;51.224;8.482;2024-02-21T01:22:19;9.10;82.20
32506;DHT22;18955;51.224;8.482;2024-02-21T01:24:45;9.00;82.70
32506;DHT22;18955;51.224;8.482;2024-02-21T01:27:11;9.00;83.00
32506;DHT22;18955;51.224;8.482;2024-02-21T01:29:37;9.40;81.00
32506;DHT22;18955;51.224;8.482;2024-02-21T01:32:04;9.40;80.90
32506;DHT22;18955;51.224;8.482;2024-02-21T01:34:30;9.20;81.50
32506;DHT22;18955;51.224;8.482;2024-02-21T01:36:56;9.00;82.10
32506;DHT22;18955;51.224;8.482;2024-02-21T01:39:23;8.90;82.80
32506;DHT22;18955;51.224;8.482;2024-02-21T01:41:49;9.30;82.10
32506;DHT22;18955;51.224;8.482;2024-02-21T01:44:15;9.50;80.70
32506;DHT22;18955;51.224;8.482;2024-02-21T01:46:41;9.30;81.00
32506;DHT22;18955;51.224;8.482;2024-02-21T01:49:08;9.20;81.70
32506;DHT22;18955;51.224;8.482;2024-02-21T01:51:36;9.00;82.30
32506;DHT22;18955;51.224;8.482;2024-02-21T01:54:02;8.90;82.70
32506;DHT22;18955;51.224;8.482;2024-02-21T01:56:29;9.40;81.10
32506;DHT22;18955;51.224;8.482;2024-02-21T01:58:55;9.40;80.70
32506;DHT22;18955;51.224;8.482;2024-02-21T02:01:21;9.20;81.30
32506;DHT22;18955;51.224;8.482;2024-02-21T02:03:48;9.00;82.00
32506;DHT22;18955;51.224;8.482;2024-02-21T02:06:14;8.90;82.60
32506;DHT22;18955;51.224;8.482;2024-02-21T02:08:40;9.20;82.30
32506;DHT22;18955;51.224;8.482;2024-02-21T02:11:07;9.40;80.80
32506;DHT22;18955;51.224;8.482;2024-02-21T02:13:33;9.30;81.00
32506;DHT22;18955;51.224;8.482;2024-02-21T02:16:00;9.10;81.70
32506;DHT22;18955;51.224;8.482;2024-02-21T02:18:26;9.00;82.40
32506;DHT22;18955;51.224;8.482;2024-02-21T02:20:52;8.90;82.80
32506;DHT22;18955;51.224;8.482;2024-02-21T02:23:23;9.40;80.90
32506;DHT22;18955;51.224;8.482;2024-02-21T02:25:50;9.40;80.70
32506;DHT22;18955;51.224;8.482;2024-02-21T02:28:20;9.20;81.40
32506;DHT22;18955;51.224;8.482;2024-02-21T02:30:47;9.00;82.00
32506;DHT22;18955;51.224;8.482;2024-02-21T02:33:13;8.90;82.60
32506;DHT22;18955;51.224;8.482;2024-02-21T02:35:40;9.20;81.90
32506;DHT22;18955;51.224;8.482;2024-02-21T02:38:06;9.40;80.70
32506;DHT22;18955;51.224;8.482;2024-02-21T02:40:36;9.30;81.00
32506;DHT22;18955;51.224;8.482;2024-02-21T02:43:02;9.10;81.70
32506;DHT22;18955;51.224;8.482;2024-02-21T02:45:29;8.90;82.30
32506;DHT22;18955;51.224;8.482;2024-02-21T02:47:56;8.90;82.80
32506;DHT22;18955;51.224;8.482;2024-02-21T02:50:26;9.40;81.00
32506;DHT22;18955;51.224;8.482;2024-02-21T02:52:54;9.30;80.70
32506;DHT22;18955;51.224;8.482;2024-02-21T02:55:20;9.20;81.40
32506;DHT22;18955;51.224;8.482;2024-02-21T02:57:46;9.00;82.00
32506;DHT22;18955;51.224;8.482;2024-02-21T03:00:14;8.90;82.70
32506;DHT22;18955;51.224;8.482;2024-02-21T03:02:43;9.20;81.90
32506;DHT22;18955;51.224;8.482;2024-02-21T03:05:14;9.40;80.70
32506;DHT22;18955;51.224;8.482;2024-02-21T03:07:41;9.30;81.10
32506;DHT22;18955;51.224;8.482;2024-02-21T03:10:07;9.10;81.80
32506;DHT22;18955;51.224;8.482;2024-02-21T03:12:34;8.90;82.40
32506;DHT22;18955;51.224;8.482;2024-02-21T03:15:00;9.00;82.80
32506;DHT22;18955;51.224;8.482;2024-02-21T03:17:26;9.40;80.70
32506;DHT22;18955;51.224;8.482;2024-02-21T03:19:55;9.40;80.70
32506;DHT22;18955;51.224;8.482;2024-02-21T03:22:22;9.10;81.30
32506;DHT22;18955;51.224;8.482;2024-02-21T03:24:48;9.00;82.10
32506;DHT22;18955;51.224;8.482;2024-02-21T03:27:14;8.90;82.70
32506;DHT22;18955;51.224;8.482;2024-02-21T03:29:40;9.30;81.50
32506;DHT22;18955;51.224;8.482;2024-02-21T03:32:07;9.40;80.60
32506;DHT22;18955;51.224;8.482;2024-02-21T03:34:33;9.20;81.00
32506;DHT22;18955;51.224;8.482;2024-02-21T03:36:59;9.10;81.80
32506;DHT22;18955;51.224;8.482;2024-02-21T03:39:25;8.90;82.30
32506;DHT22;18955;51.224;8.482;2024-02-21T03:41:52;9.00;82.60
32506;DHT22;18955;51.224;8.482;2024-02-21T03:44:18;9.40;80.80
32506;DHT22;18955;51.224;8.482;2024-02-21T03:46:44;9.30;80.70
32506;DHT22;18955;51.224;8.482;2024-02-21T03:49:11;9.10;81.50
32506;DHT22;18955;51.224;8.482;2024-02-21T03:51:37;9.00;82.20
32506;DHT22;18955;51.224;8.482;2024-02-21T03:54:03;8.80;82.60
32506;DHT22;18955;51.224;8.482;2024-02-21T03:56:30;9.30;81.30
32506;DHT22;18955;51.224;8.482;2024-02-21T03:58:56;9.40;80.40
32506;DHT22;18955;51.224;8.482;2024-02-21T04:01:22;9.20;80.90
32506;DHT22;18955;51.224;8.482;2024-02-21T04:03:48;9.00;81.70
32506;DHT22;18955;51.224;8.482;2024-02-21T04:06:15;8.90;82.20
32506;DHT22;18955;51.224;8.482;2024-02-21T04:08:41;9.00;82.70
32506;DHT22;18955;51.224;8.482;2024-02-21T04:11:07;9.40;80.60
32506;DHT22;18955;51.224;8.482;2024-02-21T04:13:33;9.30;80.60
32506;DHT22;18955;51.224;8.482;2024-02-21T04:15:59;9.10;81.40
32506;DHT22;18955;51.224;8.482;2024-02-21T04:18:27;9.00;82.10
32506;DHT22;18955;51.224;8.482;2024-02-21T04:20:53;8.80;82.50
32506;DHT22;18955;51.224;8.482;2024-02-21T04:23:19;9.30;81.30
32506;DHT22;18955;51.224;8.482;2024-02-21T04:25:45;9.40;80.60
32506;DHT22;18955;51.224;8.482;2024-02-21T04:28:11;9.20;81.00
32506;DHT22;18955;51.224;8.482;2024-02-21T04:30:38;9.00;81.80
32506;DHT22;18955;51.224;8.482;2024-02-21T04:33:04;8.90;82.30
32506;DHT22;18955;51.224;8.482;2024-02-21T04:35:30;9.00;82.50
32506;DHT22;18955;51.224;8.482;2024-02-21T04:37:56;9.40;80.60
32506;DHT22;18955;51.224;8.482;2024-02-21T04:40:22;9.30;80.70
32506;DHT22;18955;51.224;8.482;2024-02-21T04:42:49;9.10;81.60
32506;DHT22;18955;51.224;8.482;2024-02-21T04:45:15;8.90;82.10
32506;DHT22;18955;51.224;8.482;2024-02-21T04:47:42;8.90;82.60
32506;DHT22;18955;51.224;8.482;2024-02-21T04:50:09;9.30;80.90
32506;DHT22;18955;51.224;8.482;2024-02-21T04:52:35;9.30;80.50
32506;DHT22;18955;51.224;8.482;2024-02-21T04:55:01;9.10;81.20
32506;DHT22;18955;51.224;8.482;2024-02-21T04:57:27;9.00;82.00
32506;DHT22;18955;51.224;8.482;2024-02-21T04:59:53;8.80;82.40
32506;DHT22;18955;51.224;8.482;2024-02-21T05:02:20;9.10;82.00
32506;DHT22;18955;51.224;8.482;2024-02-21T05:04:48;9.30;80.70
32506;DHT22;18955;51.224;8.482;2024-02-21T05:07:14;9.20;80.90
32506;DHT22;18955;51.224;8.482;2024-02-21T05:09:42;9.00;81.70
32506;DHT22;18955;51.224;8.482;2024-02-21T05:12:08;8.90;82.30
32506;DHT22;18955;51.224;8.482;2024-02-21T05:14:34;8.90;82.70
32506;DHT22;18955;51.224;8.482;2024-02-21T05:17:00;9.30;80.70
32506;DHT22;18955;51.224;8.482;2024-02-21T05:19:27;9.30;80.60
32506;DHT22;18955;51.224;8.482;2024-02-21T05:21:53;9.10;81.40
32506;DHT22;18955;51.224;8.482;2024-02-21T05:24:19;8.90;82.10
32506;DHT22;18955;51.224;8.482;2024-02-21T05:26:45;8.80;82.60
32506;DHT22;18955;51.224;8.482;2024-02-21T05:29:12;9.20;81.60
32506;DHT22;18955;51.224;8.482;2024-02-21T05:34:20;9.10;81.20
32506;DHT22;18955;51.224;8.482;2024-02-21T05:36:46;9.00;82.00
32506;DHT22;18955;51.224;8.482;2024-02-21T05:39:13;8.80;82.40
32506;DHT22;18955;51.224;8.482;2024-02-21T05:41:40;9.10;82.10
32506;DHT22;18955;51.224;8.482;2024-02-21T05:44:06;9.30;80.50
32506;DHT22;18955;51.224;8.482;2024-02-21T05:46:32;9.20;80.80
32506;DHT22;18955;51.224;8.482;2024-02-21T05:48:59;9.10;81.60
32506;DHT22;18955;51.224;8.482;2024-02-21T05:51:25;8.90;82.30
32506;DHT22;18955;51.224;8.482;2024-02-21T05:53:51;8.90;82.60
32506;DHT22;18955;51.224;8.482;2024-02-21T05:56:17;9.30;80.80
32506;DHT22;18955;51.224;8.482;2024-02-21T05:58:44;9.30;80.60
32506;DHT22;18955;51.224;8.482;2024-02-21T06:01:10;9.10;81.20
32506;DHT22;18955;51.224;8.482;2024-02-21T06:03:36;8.90;82.00
32506;DHT22;18955;51.224;8.482;2024-02-21T06:06:03;8.80;82.50
32506;DHT22;18955;51.224;8.482;2024-02-21T06:08:31;9.10;81.80
32506;DHT22;18955;51.224;8.482;2024-02-21T06:10:57;9.30;80.50
32506;DHT22;18955;51.224;8.482;2024-02-21T06:13:23;9.20;80.80
32506;DHT22;18955;51.224;8.482;2024-02-21T06:15:50;9.00;81.50
32506;DHT22;18955;51.224;8.482;2024-02-21T06:18:17;8.90;82.20
32506;DHT22;18955;51.224;8.482;2024-02-21T06:20:44;8.90;82.50
32506;DHT22;18955;51.224;8.482;2024-02-21T06:23:12;9.40;80.50
32506;DHT22;18955;51.224;8.482;2024-02-21T06:25:38;9.30;80.50
32506;DHT22;18955;51.224;8.482;2024-02-21T06:28:05;9.10;81.20
32506;DHT22;18955;51.224;8.482;2024-02-21T06:30:31;9.00;82.00
32506;DHT22;18955;51.224;8.482;2024-02-21T06:32:58;8.80;82.50
32506;DHT22;18955;51.224;8.482;2024-02-21T06:35:25;9.20;81.30
32506;DHT22;18955;51.224;8.482;2024-02-21T06:37:51;9.30;80.50
32506;DHT22;18955;51.224;8.482;2024-02-21T06:40:22;9.20;80.90
32506;DHT22;18955;51.224;8.482;2024-02-21T06:42:49;9.00;81.70
32506;DHT22;18955;51.224;8.482;2024-02-21T06:45:16;8.90;82.30
32506;DHT22;18955;51.224;8.482;2024-02-21T06:47:42;9.00;82.30
32506;DHT22;18955;51.224;8.482;2024-02-21T06:50:09;9.30;80.70
32506;DHT22;18955;51.224;8.482;2024-02-21T06:52:38;9.20;80.80
32506;DHT22;18955;51.224;8.482;2024-02-21T06:55:04;9.10;81.40
32506;DHT22;18955;51.224;8.482;2024-02-21T06:57:31;8.90;82.10
32506;DHT22;18955;51.224;8.482;2024-02-21T06:59:57;8.80;82.40
32506;DHT22;18955;51.224;8.482;2024-02-21T07:02:23;9.30;80.70
32506;DHT22;18955;51.224;8.482;2024-02-21T07:04:49;9.30;80.40
32506;DHT22;18955;51.224;8.482;2024-02-21T07:07:15;9.10;81.00
32506;DHT22;18955;51.224;8.482;2024-02-21T07:09:42;9.00;81.80
32506;DHT22;18955;51.224;8.482;2024-02-21T07:12:08;8.80;82.40
32506;DHT22;18955;51.224;8.482;2024-02-21T07:14:35;9.10;81.70
32506;DHT22;18955;51.224;8.482;2024-02-21T07:17:02;9.40;80.40
32506;DHT22;18955;51.224;8.482;2024-02-21T07:19:29;9.20;80.60
32506;DHT22;18955;51.224;8.482;2024-02-21T07:21:56;9.00;81.40
32506;DHT22;18955;51.224;8.482;2024-02-21T07:24:22;8.90;82.20
32506;DHT22;18955;51.224;8.482;2024-02-21T07:26:48;8.90;82.50
32506;DHT22;18955;51.224;8.482;2024-02-21T07:29:15;9.30;80.60
32506;DHT22;18955;51.224;8.482;2024-02-21T07:31:42;9.30;80.40
32506;DHT22;18955;51.224;8.482;2024-02-21T07:34:08;9.10;81.20
32506;DHT22;18955;51.224;8.482;2024-02-21T07:36:35;8.90;81.90
32506;DHT22;18955;51.224;8.482;2024-02-21T07:39:01;8.80;82.40
32506;DHT22;18955;51.224;8.482;2024-02-21T07:41:27;9.20;81.30
32506;DHT22;18955;51.224;8.482;2024-02-21T07:43:56;9.30;80.40
32506;DHT22;18955;51.224;8.482;2024-02-21T07:46:22;9.20;81.40
32506;DHT22;18955;51.224;8.482;2024-02-21T07:48:49;9.00;81.50
32506;DHT22;18955;51.224;8.482;2024-02-21T07:51:15;8.90;82.20
32506;DHT22;18955;51.224;8.482;2024-02-21T07:53:45;8.90;82.30
32506;DHT22;18955;51.224;8.482;2024-02-21T07:56:12;9.40;80.20
32506;DHT22;18955;51.224;8.482;2024-02-21T07:58:38;9.30;80.40
32506;DHT22;18955;51.224;8.482;2024-02-21T08:01:05;9.10;81.70
32506;DHT22;18955;51.224;8.482;2024-02-21T08:03:31;9.00;82.00
32506;DHT22;18955;51.224;8.482;2024-02-21T08:05:57;8.80;82.90
32506;DHT22;18955;51.224;8.482;2024-02-21T08:08:23;9.30;81.10
32506;DHT22;18955;51.224;8.482;2024-02-21T08:10:51;9.30;80.40
32506;DHT22;18955;51.224;8.482;2024-02-21T08:13:17;9.20;80.90
32506;DHT22;18955;51.224;8.482;2024-02-21T08:15:43;9.00;81.70
32506;DHT22;18955;51.224;8.482;2024-02-21T08:18:10;8.90;82.30
32506;DHT22;18955;51.224;8.482;2024-02-21T08:20:36;9.00;82.20
32506;DHT22;18955;51.224;8.482;2024-02-21T08:23:02;9.40;80.40
32506;DHT22;18955;51.224;8.482;2024-02-21T08:25:29;9.30;80.50
32506;DHT22;18955;51.224;8.482;2024-02-21T08:27:58;9.10;81.30
32506;DHT22;18955;51.224;8.482;2024-02-21T08:30:24;8.90;82.00
32506;DHT22;18955;51.224;8.482;2024-02-21T08:32:51;8.90;82.40
32506;DHT22;18955;51.224;8.482;2024-02-21T08:35:17;9.30;80.80
32506;DHT22;18955;51.224;8.482;2024-02-21T08:37:48;9.40;80.30
32506;DHT22;18955;51.224;8.482;2024-02-21T08:40:14;9.10;80.90
32506;DHT22;18955;51.224;8.482;2024-02-21T08:42:44;9.00;81.80
32506;DHT22;18955;51.224;8.482;2024-02-21T08:45:10;8.90;82.50
32506;DHT22;18955;51.224;8.482;2024-02-21T08:47:39;9.20;81.60
32506;DHT22;18955;51.224;8.482;2024-02-21T08:50:06;9.40;80.10
32506;DHT22;18955;51.224;8.482;2024-02-21T08:52:32;9.30;80.50
32506;DHT22;18955;51.224;8.482;2024-02-21T08:54:58;9.10;81.40
32506;DHT22;18955;51.224;8.482;2024-02-21T08:57:24;8.90;82.10
32506;DHT22;18955;51.224;8.482;2024-02-21T08:59:50;8.90;82.40
32506;DHT22;18955;51.224;8.482;2024-02-21T09:02:17;9.40;80.50
32506;DHT22;18955;51.224;8.482;2024-02-21T09:04:43;9.40;80.30
32506;DHT22;18955;51.224;8.482;2024-02-21T09:07:13;9.20;81.00
32506;DHT22;18955;51.224;8.482;2024-02-21T09:09:39;9.00;81.70
32506;DHT22;18955;51.224;8.482;2024-02-21T09:12:09;8.90;82.40
32506;DHT22;18955;51.224;8.482;2024-02-21T09:14:37;9.20;81.50
32506;DHT22;18955;51.224;8.482;2024-02-21T09:17:04;9.40;80.30
32506;DHT22;18955;51.224;8.482;2024-02-21T09:19:30;9.30;80.70
32506;DHT22;18955;51.224;8.482;2024-02-21T09:21:57;9.10;81.50
32506;DHT22;18955;51.224;8.482;2024-02-21T09:24:23;9.00;82.30
32506;DHT22;18955;51.224;8.482;2024-02-21T09:26:49;8.90;82.50
32506;DHT22;18955;51.224;8.482;2024-02-21T09:29:15;9.40;80.50
32506;DHT22;18955;51.224;8.482;2024-02-21T09:31:42;9.40;80.30
32506;DHT22;18955;51.224;8.482;2024-02-21T09:34:08;9.20;81.00
32506;DHT22;18955;51.224;8.482;2024-02-21T09:36:37;9.00;81.80
32506;DHT22;18955;51.224;8.482;2024-02-21T09:39:03;8.90;82.30
32506;DHT22;18955;51.224;8.482;2024-02-21T09:41:29;9.30;81.30
32506;DHT22;18955;51.224;8.482;2024-02-21T09:43:56;9.50;80.20
32506;DHT22;18955;51.224;8.482;2024-02-21T09:46:35;9.30;80.60
32506;DHT22;18955;51.224;8.482;2024-02-21T09:49:29;9.10;81.50
32506;DHT22;18955;51.224;8.482;2024-02-21T09:51:57;9.00;82.40
32506;DHT22;18955;51.224;8.482;2024-02-21T09:54:28;9.10;82.10
32506;DHT22;18955;51.224;8.482;2024-02-21T09:56:55;9.50;80.90
32506;DHT22;18955;51.224;8.482;2024-02-21T09:59:21;9.40;80.50
32506;DHT22;18955;51.224;8.482;2024-02-21T10:01:47;9.20;81.40
32506;DHT22;18955;51.224;8.482;2024-02-21T10:04:14;9.00;81.90
32506;DHT22;18955;51.224;8.482;2024-02-21T10:06:40;8.90;82.30
32506;DHT22;18955;51.224;8.482;2024-02-21T10:09:06;9.40;81.00
32506;DHT22;18955;51.224;8.482;2024-02-21T10:11:33;9.50;80.30
32506;DHT22;18955;51.224;8.482;2024-02-21T10:14:06;9.30;80.90
32506;DHT22;18955;51.224;8.482;2024-02-21T10:16:33;9.10;81.70
32506;DHT22;18955;51.224;8.482;2024-02-21T10:19:00;9.00;82.20
32506;DHT22;18955;51.224;8.482;2024-02-21T10:21:26;9.20;82.30
32506;DHT22;18955;51.224;8.482;2024-02-21T10:23:52;9.60;80.40
32506;DHT22;18955;51.224;8.482;2024-02-21T10:26:19;9.50;80.50
32506;DHT22;18955;51.224;8.482;2024-02-21T10:28:47;9.30;81.30
32506;DHT22;18955;51.224;8.482;2024-02-21T10:31:27;9.10;81.90
32506;DHT22;18955;51.224;8.482;2024-02-21T10:33:55;9.00;82.40
32506;DHT22;18955;51.224;8.482;2024-02-21T10:36:21;9.50;80.80
32506;DHT22;18955;51.224;8.482;2024-02-21T10:38:47;9.50;80.30
32506;DHT22;18955;51.224;8.482;2024-02-21T10:41:14;9.40;80.90
32506;DHT22;18955;51.224;8.482;2024-02-21T10:43:49;9.20;81.70
32506;DHT22;18955;51.224;8.482;2024-02-21T10:46:18;9.00;82.30
32506;DHT22;18955;51.224;8.482;2024-02-21T10:48:46;9.20;82.20
32506;DHT22;18955;51.224;8.482;2024-02-21T10:56:33;9.30;81.30
32506;DHT22;18955;51.224;8.482;2024-02-21T10:59:05;9.10;82.00
32506;DHT22;18955;51.224;8.482;2024-02-21T11:01:31;9.10;82.50
32506;DHT22;18955;51.224;8.482;2024-02-21T11:04:06;9.60;81.00
32506;DHT22;18955;51.224;8.482;2024-02-21T11:06:34;9.60;80.50
32506;DHT22;18955;51.224;8.482;2024-02-21T11:11:41;9.30;81.90
32506;DHT22;18955;51.224;8.482;2024-02-21T11:14:18;9.10;82.50
32506;DHT22;18955;51.224;8.482;2024-02-21T11:16:45;9.40;82.00
32506;DHT22;18955;51.224;8.482;2024-02-21T11:19:25;9.70;80.30
32506;DHT22;18955;51.224;8.482;2024-02-21T11:21:53;9.60;80.70
32506;DHT22;18955;51.224;8.482;2024-02-21T11:24:32;9.40;81.50
32506;DHT22;18955;51.224;8.482;2024-02-21T11:27:19;9.20;82.10
32506;DHT22;18955;51.224;8.482;2024-02-21T11:29:56;9.30;82.60
32506;DHT22;18955;51.224;8.482;2024-02-21T11:32:23;9.70;80.60
32506;DHT22;18955;51.224;8.482;2024-02-21T11:34:55;9.70;80.40
32506;DHT22;18955;51.224;8.482;2024-02-21T11:37:21;9.50;81.20
32506;DHT22;18955;51.224;8.482;2024-02-21T11:39:50;9.30;81.90
32506;DHT22;18955;51.224;8.482;2024-02-21T11:42:19;9.20;82.60
32506;DHT22;18955;51.224;8.482;2024-02-21T11:44:46;9.50;82.20
32506;DHT22;18955;51.224;8.482;2024-02-21T11:47:14;9.80;80.50
32506;DHT22;18955;51.224;8.482;2024-02-21T11:49:46;9.70;80.70
32506;DHT22;18955;51.224;8.482;2024-02-21T11:52:13;9.50;81.60
32506;DHT22;18955;51.224;8.482;2024-02-21T11:54:41;9.30;82.10
32506;DHT22;18955;51.224;8.482;2024-02-21T11:57:08;9.20;82.70
32506;DHT22;18955;51.224;8.482;2024-02-21T11:59:34;9.70;81.30
32506;DHT22;18955;51.224;8.482;2024-02-21T12:02:01;9.80;80.40
32506;DHT22;18955;51.224;8.482;2024-02-21T12:04:29;9.70;80.80
32506;DHT22;18955;51.224;8.482;2024-02-21T12:06:59;9.50;81.60
32506;DHT22;18955;51.224;8.482;2024-02-21T12:09:26;9.40;82.30
32506;DHT22;18955;51.224;8.482;2024-02-21T12:12:02;9.30;82.50
32506;DHT22;18955;51.224;8.482;2024-02-21T12:14:33;9.80;80.90
32506;DHT22;18955;51.224;8.482;2024-02-21T12:17:01;9.90;80.40
32506;DHT22;18955;51.224;8.482;2024-02-21T12:19:30;9.70;80.80
32506;DHT22;18955;51.224;8.482;2024-02-21T12:21:59;9.60;81.70
32506;DHT22;18955;51.224;8.482;2024-02-21T12:24:26;9.40;82.20
32506;DHT22;18955;51.224;8.482;2024-02-21T12:26:53;9.40;82.60
32506;DHT22;18955;51.224;8.482;2024-02-21T12:29:21;9.90;80.70
32506;DHT22;18955;51.224;8.482;2024-02-21T12:31:48;9.90;80.30
32506;DHT22;18955;51.224;8.482;2024-02-21T12:34:14;9.80;81.00
32506;DHT22;18955;51.224;8.482;2024-02-21T12:36:42;9.60;81.80
32506;DHT22;18955;51.224;8.482;2024-02-21T12:39:12;9.40;82.30
32506;DHT22;18955;51.224;8.482;2024-02-21T12:41:39;9.50;82.60
32506;DHT22;18955;51.224;8.482;2024-02-21T12:44:10;10.00;80.60
32506;DHT22;18955;51.224;8.482;2024-02-21T12:46:39;10.00;80.30
32506;DHT22;18955;51.224;8.482;2024-02-21T12:49:06;9.80;81.00
32506;DHT22;18955;51.224;8.482;2024-02-21T12:51:34;9.60;81.90
32506;DHT22;18955;51.224;8.482;2024-02-21T12:54:01;9.50;82.40
32506;DHT22;18955;51.224;8.482;2024-02-21T12:56:29;9.50;82.60
32506;DHT22;18955;51.224;8.482;2024-02-21T12:58:57;9.90;80.80
32506;DHT22;18955;51.224;8.482;2024-02-21T13:01:23;10.00;80.60
32506;DHT22;18955;51.224;8.482;2024-02-21T13:03:49;9.80;81.20
32506;DHT22;18955;51.224;8.482;2024-02-21T13:06:16;9.70;82.00
32506;DHT22;18955;51.224;8.482;2024-02-21T13:08:42;9.50;82.50
32506;DHT22;18955;51.224;8.482;2024-02-21T13:11:10;9.50;82.60
32506;DHT22;18955;51.224;8.482;2024-02-21T13:13:36;10.00;80.70
32506;DHT22;18955;51.224;8.482;2024-02-21T13:16:03;10.00;80.50
32506;DHT22;18955;51.224;8.482;2024-02-21T13:18:29;9.90;81.10
32506;DHT22;18955;51.224;8.482;2024-02-21T13:20:56;9.70;81.80
32506;DHT22;18955;51.224;8.482;2024-02-21T13:23:22;9.60;82.50
32506;DHT22;18955;51.224;8.482;2024-02-21T13:25:48;9.50;82.70
32506;DHT22;18955;51.224;8.482;2024-02-21T13:28:15;10.00;81.00
32506;DHT22;18955;51.224;8.482;2024-02-21T13:30:43;10.00;80.50
32506;DHT22;18955;51.224;8.482;2024-02-21T13:33:09;9.90;81.00
32506;DHT22;18955;51.224;8.482;2024-02-21T13:35:36;9.80;82.40
32506;DHT22;18955;51.224;8.482;2024-02-21T13:38:03;9.70;82.50
32506;DHT22;18955;51.224;8.482;2024-02-21T13:40:29;9.60;82.80
32506;DHT22;18955;51.224;8.482;2024-02-21T13:42:56;10.00;81.20
32506;DHT22;18955;51.224;8.482;2024-02-21T13:45:22;10.20;80.50
32506;DHT22;18955;51.224;8.482;2024-02-21T13:47:48;10.00;80.80
32506;DHT22;18955;51.224;8.482;2024-02-21T13:50:15;9.80;81.50
32506;DHT22;18955;51.224;8.482;2024-02-21T13:52:41;9.70;82.10
32506;DHT22;18955;51.224;8.482;2024-02-21T13:55:08;9.60;82.50
32506;DHT22;18955;51.224;8.482;2024-02-21T13:57:37;9.90;81.80
32506;DHT22;18955;51.224;8.482;2024-02-21T14:00:04;10.20;80.30
32506;DHT22;18955;51.224;8.482;2024-02-21T14:02:38;10.10;80.30
32506;DHT22;18955;51.224;8.482;2024-02-21T14:05:05;9.90;81.00
32506;DHT22;18955;51.224;8.482;2024-02-21T14:07:32;9.70;81.40
32506;DHT22;18955;51.224;8.482;2024-02-21T14:10:01;9.60;82.00
32506;DHT22;18955;51.224;8.482;2024-02-21T14:12:28;9.80;81.70
32506;DHT22;18955;51.224;8.482;2024-02-21T14:14:54;10.20;79.80
32506;DHT22;18955;51.224;8.482;2024-02-21T14:17:22;10.20;79.50
32506;DHT22;18955;51.224;8.482;2024-02-21T14:19:49;10.00;80.20
32506;DHT22;18955;51.224;8.482;2024-02-21T14:22:15;9.80;81.50
32506;DHT22;18955;51.224;8.482;2024-02-21T14:24:41;9.70;81.40
32506;DHT22;18955;51.224;8.482;2024-02-21T14:27:08;9.60;81.60
32506;DHT22;18955;51.224;8.482;2024-02-21T14:29:34;10.20;80.10
32506;DHT22;18955;51.224;8.482;2024-02-21T14:32:00;10.20;79.20
32506;DHT22;18955;51.224;8.482;2024-02-21T14:34:27;10.10;79.90
32506;DHT22;18955;51.224;8.482;2024-02-21T14:36:53;9.90;80.60
32506;DHT22;18955;51.224;8.482;2024-02-21T14:39:20;9.70;81.20
32506;DHT22;18955;51.224;8.482;2024-02-21T14:41:46;9.60;81.70
32506;DHT22;18955;51.224;8.482;2024-02-21T14:44:12;10.00;80.80
32506;DHT22;18955;51.224;8.482;2024-02-21T14:46:40;10.20;79.50
32506;DHT22;18955;51.224;8.482;2024-02-21T14:49:06;10.20;79.90
32506;DHT22;18955;51.224;8.482;2024-02-21T14:51:32;10.00;80.60
32506;DHT22;18955;51.224;8.482;2024-02-21T14:53:59;9.80;81.30
32506;DHT22;18955;51.224;8.482;2024-02-21T14:56:26;9.70;81.80
32506;DHT22;18955;51.224;8.482;2024-02-21T14:58:52;9.80;81.60
32506;DHT22;18955;51.224;8.482;2024-02-21T15:01:18;10.20;79.70
32506;DHT22;18955;51.224;8.482;2024-02-21T15:03:44;10.20;79.50
32506;DHT22;18955;51.224;8.482;2024-02-21T15:06:10;10.00;80.30
32506;DHT22;18955;51.224;8.482;2024-02-21T15:08:37;9.90;81.10
32506;DHT22;18955;51.224;8.482;2024-02-21T15:11:04;9.80;81.40
32506;DHT22;18955;51.224;8.482;2024-02-21T15:13:30;9.60;81.90
32506;DHT22;18955;51.224;8.482;2024-02-21T15:15:56;10.10;80.40
32506;DHT22;18955;51.224;8.482;2024-02-21T15:18:22;10.20;79.40
32506;DHT22;18955;51.224;8.482;2024-02-21T15:20:49;10.10;79.60
32506;DHT22;18955;51.224;8.482;2024-02-21T15:23:15;10.00;80.40
32506;DHT22;18955;51.224;8.482;2024-02-21T15:25:42;9.80;81.20
32506;DHT22;18955;51.224;8.482;2024-02-21T15:28:09;9.70;81.50
32506;DHT22;18955;51.224;8.482;2024-02-21T15:30:36;9.80;81.20
32506;DHT22;18955;51.224;8.482;2024-02-21T15:33:02;10.30;79.30
32506;DHT22;18955;51.224;8.482;2024-02-21T15:35:29;10.20;79.10
32506;DHT22;18955;51.224;8.482;2024-02-21T15:37:57;10.00;80.00
32506;DHT22;18955;51.224;8.482;2024-02-21T15:40:24;9.90;80.90
32506;DHT22;18955;51.224;8.482;2024-02-21T15:42:50;9.70;81.30
32506;DHT22;18955;51.224;8.482;2024-02-21T15:45:17;9.70;81.70
32506;DHT22;18955;51.224;8.482;2024-02-21T15:47:43;10.10;80.20
32506;DHT22;18955;51.224;8.482;2024-02-21T15:50:09;10.20;79.20
32506;DHT22;18955;51.224;8.482;2024-02-21T15:52:38;10.10;79.70
32506;DHT22;18955;51.224;8.482;2024-02-21T15:55:05;10.00;80.50